sensor_id;sensor_type;location;lat;lon;timestamp;pressure;altitude;pressure_sealevel;temperature;humidity
4326;BME280;58429;49.826;10.880;2022-10-28T00:00:00;99501;;;14.79;79.57
4326;BME280;58429;49.826;10.880;2022-10-28T00:01:01;99502;;;14.77;79.71
4326;BME280;58429;49.826;10.880;2022-10-28T00:02:00;99502;;;14.78;79.75
4326;BME280;58429;49.826;10.880;2022-10-28T00:03:00;99505;;;14.77;79.8
4326;BME280;58429;49.826;10.880;2022-10-28T00:04:00;99509;;;14.73;79.82
4326;BME280;58429;49.826;10.880;2022-10-28T00:05:00;99503;;;14.7;79.87
4326;BME280;58429;49.826;10.880;2022-10-28T00:06:01;99506;;;14.7;79.76
4326;BME280;58429;49.826;10.880;2022-10-28T00:07:00;99509;;;14.67;79.93
4326;BME280;58429;49.826;10.880;2022-10-28T00:08:00;99502;;;14.63;80
4326;BME280;58429;49.826;10.880;2022-10-28T00:09:00;99500;;;14.66;80.06
4326;BME280;58429;49.826;10.880;2022-10-28T00:10:00;99502;;;14.61;80.08
4326;BME280;58429;49.826;10.880;2022-10-28T00:11:01;99513;;;14.62;80.09
4326;BME280;58429;49.826;10.880;2022-10-28T00:12:00;99508;;;14.61;80.1
4326;BME280;58429;49.826;10.880;2022-10-28T00:13:00;99509;;;14.63;80.27
4326;BME280;58429;49.826;10.880;2022-10-28T00:14:01;99517;;;14.61;80.23
4326;BME280;58429;49.826;10.880;2022-10-28T00:15:00;99517;;;14.6;80.3
4326;BME280;58429;49.826;10.880;2022-10-28T00:16:04;99517;;;14.54;80.41
4326;BME280;58429;49.826;10.880;2022-10-28T00:17:00;99519;;;14.54;80.62
4326;BME280;58429;49.826;10.880;2022-10-28T00:18:00;99517;;;14.56;80.78
4326;BME280;58429;49.826;10.880;2022-10-28T00:19:00;99507;;;14.57;80.87
4326;BME280;58429;49.826;10.880;2022-10-28T00:20:00;99509;;;14.57;80.9
4326;BME280;58429;49.826;10.880;2022-10-28T00:21:00;99507;;;14.58;80.88
4326;BME280;58429;49.826;10.880;2022-10-28T00:22:00;99509;;;14.57;80.86
4326;BME280;58429;49.826;10.880;2022-10-28T00:23:00;99512;;;14.57;80.8
4326;BME280;58429;49.826;10.880;2022-10-28T00:24:00;99507;;;14.56;80.91
4326;BME280;58429;49.826;10.880;2022-10-28T00:25:00;99506;;;14.55;80.92
4326;BME280;58429;49.826;10.880;2022-10-28T00:26:05;99505;;;14.57;80.81
4326;BME280;58429;49.826;10.880;2022-10-28T00:27:00;99511;;;14.53;80.82
4326;BME280;58429;49.826;10.880;2022-10-28T00:28:00;99507;;;14.52;80.72
4326;BME280;58429;49.826;10.880;2022-10-28T00:29:01;99507;;;14.55;80.81
4326;BME280;58429;49.826;10.880;2022-10-28T00:30:00;99505;;;14.51;80.93
4326;BME280;58429;49.826;10.880;2022-10-28T00:31:02;99500;;;14.5;80.94
4326;BME280;58429;49.826;10.880;2022-10-28T00:32:00;99499;;;14.51;81
4326;BME280;58429;49.826;10.880;2022-10-28T00:33:00;99492;;;14.49;80.88
4326;BME280;58429;49.826;10.880;2022-10-28T00:34:01;99499;;;14.5;80.84
4326;BME280;58429;49.826;10.880;2022-10-28T00:35:00;99496;;;14.51;80.94
4326;BME280;58429;49.826;10.880;2022-10-28T00:36:09;99498;;;14.45;81.01
4326;BME280;58429;49.826;10.880;2022-10-28T00:37:00;99497;;;14.42;81.09
4326;BME280;58429;49.826;10.880;2022-10-28T00:38:00;99507;;;14.44;81.18
4326;BME280;58429;49.826;10.880;2022-10-28T00:39:01;99501;;;14.38;81.31
4326;BME280;58429;49.826;10.880;2022-10-28T00:40:00;99500;;;14.41;81.46
4326;BME280;58429;49.826;10.880;2022-10-28T00:41:00;99493;;;14.45;81.67
4326;BME280;58429;49.826;10.880;2022-10-28T00:42:00;99501;;;14.44;81.74
4326;BME280;58429;49.826;10.880;2022-10-28T00:43:00;99496;;;14.47;81.75
4326;BME280;58429;49.826;10.880;2022-10-28T00:44:00;99493;;;14.5;81.85
4326;BME280;58429;49.826;10.880;2022-10-28T00:45:00;99496;;;14.51;81.76
4326;BME280;58429;49.826;10.880;2022-10-28T00:46:00;99486;;;14.51;81.77
4326;BME280;58429;49.826;10.880;2022-10-28T00:47:00;99487;;;14.52;81.61
4326;BME280;58429;49.826;10.880;2022-10-28T00:48:01;99487;;;14.49;81.35
4326;BME280;58429;49.826;10.880;2022-10-28T00:49:00;99489;;;14.46;81.12
4326;BME280;58429;49.826;10.880;2022-10-28T00:50:02;99484;;;14.45;80.94
4326;BME280;58429;49.826;10.880;2022-10-28T00:51:00;99485;;;14.44;80.75
4326;BME280;58429;49.826;10.880;2022-10-28T00:52:01;99489;;;14.37;80.68
4326;BME280;58429;49.826;10.880;2022-10-28T00:53:00;99489;;;14.34;80.57
4326;BME280;58429;49.826;10.880;2022-10-28T00:54:00;99486;;;14.37;80.49
4326;BME280;58429;49.826;10.880;2022-10-28T00:55:00;99489;;;14.34;80.43
4326;BME280;58429;49.826;10.880;2022-10-28T00:56:00;99487;;;14.32;80.43
4326;BME280;58429;49.826;10.880;2022-10-28T00:57:01;99488;;;14.3;80.6
4326;BME280;58429;49.826;10.880;2022-10-28T00:58:00;99492;;;14.26;80.75
4326;BME280;58429;49.826;10.880;2022-10-28T00:59:01;99491;;;14.2;80.92
4326;BME280;58429;49.826;10.880;2022-10-28T01:00:00;99487;;;14.16;81.03
4326;BME280;58429;49.826;10.880;2022-10-28T01:01:00;99483;;;14.1;81.1
4326;BME280;58429;49.826;10.880;2022-10-28T01:02:00;99484;;;14.11;81.08
4326;BME280;58429;49.826;10.880;2022-10-28T01:03:00;99483;;;14.1;80.99
4326;BME280;58429;49.826;10.880;2022-10-28T01:04:00;99478;;;14.08;81.16
4326;BME280;58429;49.826;10.880;2022-10-28T01:05:00;99472;;;14.09;81.68
4326;BME280;58429;49.826;10.880;2022-10-28T01:06:00;99478;;;14.1;81.77
4326;BME280;58429;49.826;10.880;2022-10-28T01:07:00;99480;;;14.13;81.68
4326;BME280;58429;49.826;10.880;2022-10-28T01:08:01;99479;;;14.11;81.66
4326;BME280;58429;49.826;10.880;2022-10-28T01:09:00;99476;;;14.15;81.71
4326;BME280;58429;49.826;10.880;2022-10-28T01:10:00;99469;;;14.16;81.91
4326;BME280;58429;49.826;10.880;2022-10-28T01:11:13;99477;;;14.14;81.89
4326;BME280;58429;49.826;10.880;2022-10-28T01:12:02;99469;;;14.14;81.94
4326;BME280;58429;49.826;10.880;2022-10-28T01:13:02;99475;;;14.16;81.89
4326;BME280;58429;49.826;10.880;2022-10-28T01:14:04;99472;;;14.14;81.81
4326;BME280;58429;49.826;10.880;2022-10-28T01:15:03;99464;;;14.18;81.86
4326;BME280;58429;49.826;10.880;2022-10-28T01:16:03;99466;;;14.14;81.79
4326;BME280;58429;49.826;10.880;2022-10-28T01:17:05;99458;;;14.18;81.64
4326;BME280;58429;49.826;10.880;2022-10-28T01:18:03;99459;;;14.16;81.55
4326;BME280;58429;49.826;10.880;2022-10-28T01:19:06;99467;;;14.11;81.34
4326;BME280;58429;49.826;10.880;2022-10-28T01:21:22;99460;;;14.07;81.15
4326;BME280;58429;49.826;10.880;2022-10-28T01:22:04;99456;;;14.01;81.17
4326;BME280;58429;49.826;10.880;2022-10-28T01:23:02;99454;;;14.02;81.2
4326;BME280;58429;49.826;10.880;2022-10-28T01:24:07;99452;;;14.01;81.32
4326;BME280;58429;49.826;10.880;2022-10-28T01:25:09;99444;;;14.04;81.35
4326;BME280;58429;49.826;10.880;2022-10-28T01:26:09;99446;;;14.02;81.44
4326;BME280;58429;49.826;10.880;2022-10-28T01:27:21;99449;;;14.03;81.72
4326;BME280;58429;49.826;10.880;2022-10-28T01:28:06;99443;;;13.96;81.93
4326;BME280;58429;49.826;10.880;2022-10-28T01:29:17;99451;;;14;82
4326;BME280;58429;49.826;10.880;2022-10-28T01:30:02;99456;;;14;81.94
4326;BME280;58429;49.826;10.880;2022-10-28T01:31:03;99459;;;14.01;81.98
4326;BME280;58429;49.826;10.880;2022-10-28T01:32:01;99453;;;14.01;82.19
4326;BME280;58429;49.826;10.880;2022-10-28T01:33:02;99453;;;14;82.19
4326;BME280;58429;49.826;10.880;2022-10-28T01:34:03;99455;;;13.99;81.83
4326;BME280;58429;49.826;10.880;2022-10-28T01:35:05;99455;;;13.97;81.75
4326;BME280;58429;49.826;10.880;2022-10-28T01:36:02;99462;;;13.91;81.68
4326;BME280;58429;49.826;10.880;2022-10-28T01:37:01;99455;;;13.93;81.78
4326;BME280;58429;49.826;10.880;2022-10-28T01:38:08;99458;;;13.9;82.25
4326;BME280;58429;49.826;10.880;2022-10-28T01:39:02;99463;;;13.89;82.31
4326;BME280;58429;49.826;10.880;2022-10-28T01:40:02;99463;;;13.89;82.29
4326;BME280;58429;49.826;10.880;2022-10-28T01:41:02;99453;;;13.88;82.3
4326;BME280;58429;49.826;10.880;2022-10-28T01:42:04;99456;;;13.88;82.22
4326;BME280;58429;49.826;10.880;2022-10-28T01:43:03;99455;;;13.89;82.31
4326;BME280;58429;49.826;10.880;2022-10-28T01:44:03;99444;;;13.88;81.99
4326;BME280;58429;49.826;10.880;2022-10-28T01:45:01;99450;;;13.86;82.06
4326;BME280;58429;49.826;10.880;2022-10-28T01:46:01;99444;;;13.9;82.02
4326;BME280;58429;49.826;10.880;2022-10-28T01:47:01;99445;;;13.84;82.05
4326;BME280;58429;49.826;10.880;2022-10-28T01:48:01;99452;;;13.86;81.99
4326;BME280;58429;49.826;10.880;2022-10-28T01:49:01;99454;;;13.82;81.96
4326;BME280;58429;49.826;10.880;2022-10-28T01:50:02;99452;;;13.81;81.85
4326;BME280;58429;49.826;10.880;2022-10-28T01:51:02;99448;;;13.78;81.7
4326;BME280;58429;49.826;10.880;2022-10-28T01:52:00;99456;;;13.73;81.62
4326;BME280;58429;49.826;10.880;2022-10-28T01:53:02;99457;;;13.71;81.6
4326;BME280;58429;49.826;10.880;2022-10-28T01:54:01;99465;;;13.66;81.68
4326;BME280;58429;49.826;10.880;2022-10-28T01:55:01;99462;;;13.65;81.62
4326;BME280;58429;49.826;10.880;2022-10-28T01:56:02;99469;;;13.67;81.5
4326;BME280;58429;49.826;10.880;2022-10-28T01:57:01;99472;;;13.61;81.51
4326;BME280;58429;49.826;10.880;2022-10-28T01:58:00;99472;;;13.59;81.52
4326;BME280;58429;49.826;10.880;2022-10-28T01:59:00;99471;;;13.57;81.44
4326;BME280;58429;49.826;10.880;2022-10-28T02:00:00;99472;;;13.55;81.49
4326;BME280;58429;49.826;10.880;2022-10-28T02:01:00;99473;;;13.5;81.43
4326;BME280;58429;49.826;10.880;2022-10-28T02:02:00;99469;;;13.48;81.37
4326;BME280;58429;49.826;10.880;2022-10-28T02:03:00;99474;;;13.44;81.29
4326;BME280;58429;49.826;10.880;2022-10-28T02:04:00;99466;;;13.5;81.35
4326;BME280;58429;49.826;10.880;2022-10-28T02:05:04;99470;;;13.43;81.32
4326;BME280;58429;49.826;10.880;2022-10-28T02:06:00;99463;;;13.4;81.28
4326;BME280;58429;49.826;10.880;2022-10-28T02:07:00;99469;;;13.41;81.26
4326;BME280;58429;49.826;10.880;2022-10-28T02:08:02;99464;;;13.41;81.33
4326;BME280;58429;49.826;10.880;2022-10-28T02:09:19;99462;;;13.43;81.34
4326;BME280;58429;49.826;10.880;2022-10-28T02:10:02;99459;;;13.39;81.33
4326;BME280;58429;49.826;10.880;2022-10-28T02:12:04;99458;;;13.38;81.32
4326;BME280;58429;49.826;10.880;2022-10-28T02:13:01;99456;;;13.4;81.37
4326;BME280;58429;49.826;10.880;2022-10-28T02:14:03;99455;;;13.41;81.37
4326;BME280;58429;49.826;10.880;2022-10-28T02:15:04;99454;;;13.39;81.28
4326;BME280;58429;49.826;10.880;2022-10-28T02:16:01;99449;;;13.39;81.3
4326;BME280;58429;49.826;10.880;2022-10-28T02:17:02;99447;;;13.36;81.35
4326;BME280;58429;49.826;10.880;2022-10-28T02:18:02;99447;;;13.36;81.36
4326;BME280;58429;49.826;10.880;2022-10-28T02:19:02;99442;;;13.35;81.5
4326;BME280;58429;49.826;10.880;2022-10-28T02:20:03;99446;;;13.32;81.64
4326;BME280;58429;49.826;10.880;2022-10-28T02:21:01;99445;;;13.34;81.56
4326;BME280;58429;49.826;10.880;2022-10-28T02:22:04;99445;;;13.34;81.51
4326;BME280;58429;49.826;10.880;2022-10-28T02:23:03;99446;;;13.31;81.62
4326;BME280;58429;49.826;10.880;2022-10-28T02:24:01;99450;;;13.33;81.68
4326;BME280;58429;49.826;10.880;2022-10-28T02:25:02;99449;;;13.32;81.74
4326;BME280;58429;49.826;10.880;2022-10-28T02:26:01;99444;;;13.31;81.75
4326;BME280;58429;49.826;10.880;2022-10-28T02:27:01;99448;;;13.33;81.9
4326;BME280;58429;49.826;10.880;2022-10-28T02:28:02;99448;;;13.32;81.87
4326;BME280;58429;49.826;10.880;2022-10-28T02:29:02;99449;;;13.3;81.95
4326;BME280;58429;49.826;10.880;2022-10-28T02:30:03;99452;;;13.27;81.97
4326;BME280;58429;49.826;10.880;2022-10-28T02:31:01;99454;;;13.26;82.07
4326;BME280;58429;49.826;10.880;2022-10-28T02:32:01;99456;;;13.22;82.07
4326;BME280;58429;49.826;10.880;2022-10-28T02:33:01;99457;;;13.2;82.08
4326;BME280;58429;49.826;10.880;2022-10-28T02:34:01;99459;;;13.23;82.3
4326;BME280;58429;49.826;10.880;2022-10-28T02:35:00;99457;;;13.22;82.51
4326;BME280;58429;49.826;10.880;2022-10-28T02:36:01;99457;;;13.27;82.53
4326;BME280;58429;49.826;10.880;2022-10-28T02:37:02;99455;;;13.27;82.51
4326;BME280;58429;49.826;10.880;2022-10-28T02:38:01;99455;;;13.22;82.43
4326;BME280;58429;49.826;10.880;2022-10-28T02:39:00;99452;;;13.25;82.4
4326;BME280;58429;49.826;10.880;2022-10-28T02:40:01;99442;;;13.2;82.19
4326;BME280;58429;49.826;10.880;2022-10-28T02:41:01;99440;;;13.22;82.06
4326;BME280;58429;49.826;10.880;2022-10-28T02:42:01;99441;;;13.23;82.16
4326;BME280;58429;49.826;10.880;2022-10-28T02:43:01;99444;;;13.24;82.24
4326;BME280;58429;49.826;10.880;2022-10-28T02:44:01;99436;;;13.24;82.22
4326;BME280;58429;49.826;10.880;2022-10-28T02:45:02;99439;;;13.19;82.05
4326;BME280;58429;49.826;10.880;2022-10-28T02:46:01;99437;;;13.16;82.02
4326;BME280;58429;49.826;10.880;2022-10-28T02:47:01;99441;;;13.14;82.01
4326;BME280;58429;49.826;10.880;2022-10-28T02:48:01;99430;;;13.18;82.1
4326;BME280;58429;49.826;10.880;2022-10-28T02:49:01;99432;;;13.14;82.17
4326;BME280;58429;49.826;10.880;2022-10-28T02:50:02;99428;;;13.04;82.15
4326;BME280;58429;49.826;10.880;2022-10-28T02:51:01;99433;;;13.06;82.13
4326;BME280;58429;49.826;10.880;2022-10-28T02:52:01;99429;;;13.06;82.13
4326;BME280;58429;49.826;10.880;2022-10-28T02:53:01;99430;;;13.04;82.24
4326;BME280;58429;49.826;10.880;2022-10-28T02:54:01;99431;;;13.04;82.44
4326;BME280;58429;49.826;10.880;2022-10-28T02:55:01;99426;;;13.04;82.57
4326;BME280;58429;49.826;10.880;2022-10-28T02:56:00;99430;;;13.04;82.71
4326;BME280;58429;49.826;10.880;2022-10-28T02:57:02;99431;;;13.08;82.93
4326;BME280;58429;49.826;10.880;2022-10-28T02:58:00;99432;;;13.12;83.65
4326;BME280;58429;49.826;10.880;2022-10-28T02:59:00;99432;;;13.19;83.54
4326;BME280;58429;49.826;10.880;2022-10-28T03:00:02;99430;;;13.23;83.59
4326;BME280;58429;49.826;10.880;2022-10-28T03:01:00;99426;;;13.29;83.49
4326;BME280;58429;49.826;10.880;2022-10-28T03:02:01;99428;;;13.28;83.47
4326;BME280;58429;49.826;10.880;2022-10-28T03:03:00;99431;;;13.32;83.38
4326;BME280;58429;49.826;10.880;2022-10-28T03:04:00;99436;;;13.34;83.36
4326;BME280;58429;49.826;10.880;2022-10-28T03:05:00;99437;;;13.35;83.33
4326;BME280;58429;49.826;10.880;2022-10-28T03:06:00;99437;;;13.38;83.35
4326;BME280;58429;49.826;10.880;2022-10-28T03:07:00;99430;;;13.37;83.39
4326;BME280;58429;49.826;10.880;2022-10-28T03:08:00;99440;;;13.36;83.16
4326;BME280;58429;49.826;10.880;2022-10-28T03:09:00;99434;;;13.35;82.97
4326;BME280;58429;49.826;10.880;2022-10-28T03:10:00;99431;;;13.35;82.96
4326;BME280;58429;49.826;10.880;2022-10-28T03:11:00;99432;;;13.37;83.1
4326;BME280;58429;49.826;10.880;2022-10-28T03:12:00;99431;;;13.35;82.99
4326;BME280;58429;49.826;10.880;2022-10-28T03:13:00;99430;;;13.35;82.58
4326;BME280;58429;49.826;10.880;2022-10-28T03:14:00;99426;;;13.32;82.56
4326;BME280;58429;49.826;10.880;2022-10-28T03:15:00;99427;;;13.25;82.43
4326;BME280;58429;49.826;10.880;2022-10-28T03:16:00;99423;;;13.22;82.26
4326;BME280;58429;49.826;10.880;2022-10-28T03:17:00;99420;;;13.21;82.25
4326;BME280;58429;49.826;10.880;2022-10-28T03:18:00;99425;;;13.16;82.1
4326;BME280;58429;49.826;10.880;2022-10-28T03:19:00;99418;;;13.11;82.11
4326;BME280;58429;49.826;10.880;2022-10-28T03:20:00;99422;;;13.1;82.09
4326;BME280;58429;49.826;10.880;2022-10-28T03:21:00;99419;;;13.06;82.06
4326;BME280;58429;49.826;10.880;2022-10-28T03:22:00;99420;;;13.06;82.04
4326;BME280;58429;49.826;10.880;2022-10-28T03:23:00;99423;;;13;82.02
4326;BME280;58429;49.826;10.880;2022-10-28T03:24:00;99416;;;13;81.99
4326;BME280;58429;49.826;10.880;2022-10-28T03:25:00;99423;;;12.95;81.98
4326;BME280;58429;49.826;10.880;2022-10-28T03:26:00;99418;;;12.96;82
4326;BME280;58429;49.826;10.880;2022-10-28T03:27:00;99426;;;12.92;82.02
4326;BME280;58429;49.826;10.880;2022-10-28T03:28:00;99425;;;12.88;82.16
4326;BME280;58429;49.826;10.880;2022-10-28T03:29:00;99423;;;12.88;82.13
4326;BME280;58429;49.826;10.880;2022-10-28T03:30:00;99431;;;12.87;82.17
4326;BME280;58429;49.826;10.880;2022-10-28T03:31:00;99433;;;12.88;82.17
4326;BME280;58429;49.826;10.880;2022-10-28T03:32:00;99436;;;12.85;82.32
4326;BME280;58429;49.826;10.880;2022-10-28T03:33:00;99440;;;12.84;82.43
4326;BME280;58429;49.826;10.880;2022-10-28T03:34:01;99437;;;12.82;82.57
4326;BME280;58429;49.826;10.880;2022-10-28T03:35:00;99444;;;12.82;82.54
4326;BME280;58429;49.826;10.880;2022-10-28T03:36:00;99439;;;12.77;82.75
4326;BME280;58429;49.826;10.880;2022-10-28T03:37:00;99435;;;12.78;82.89
4326;BME280;58429;49.826;10.880;2022-10-28T03:38:00;99433;;;12.81;82.88
4326;BME280;58429;49.826;10.880;2022-10-28T03:39:00;99433;;;12.75;82.96
4326;BME280;58429;49.826;10.880;2022-10-28T03:40:00;99438;;;12.81;82.92
4326;BME280;58429;49.826;10.880;2022-10-28T03:41:00;99431;;;12.77;82.79
4326;BME280;58429;49.826;10.880;2022-10-28T03:42:00;99422;;;12.74;82.83
4326;BME280;58429;49.826;10.880;2022-10-28T03:43:00;99432;;;12.77;82.82
4326;BME280;58429;49.826;10.880;2022-10-28T03:44:00;99424;;;12.74;82.72
4326;BME280;58429;49.826;10.880;2022-10-28T03:45:00;99426;;;12.72;82.62
4326;BME280;58429;49.826;10.880;2022-10-28T03:46:00;99437;;;12.73;82.64
4326;BME280;58429;49.826;10.880;2022-10-28T03:47:00;99430;;;12.75;82.61
4326;BME280;58429;49.826;10.880;2022-10-28T03:48:00;99438;;;12.71;82.56
4326;BME280;58429;49.826;10.880;2022-10-28T03:49:00;99436;;;12.76;82.72
4326;BME280;58429;49.826;10.880;2022-10-28T03:50:00;99436;;;12.75;82.89
4326;BME280;58429;49.826;10.880;2022-10-28T03:51:00;99434;;;12.72;83
4326;BME280;58429;49.826;10.880;2022-10-28T03:52:00;99433;;;12.79;83.06
4326;BME280;58429;49.826;10.880;2022-10-28T03:53:00;99433;;;12.79;83.14
4326;BME280;58429;49.826;10.880;2022-10-28T03:54:00;99430;;;12.81;83.06
4326;BME280;58429;49.826;10.880;2022-10-28T03:55:00;99433;;;12.85;83.09
4326;BME280;58429;49.826;10.880;2022-10-28T03:56:01;99429;;;12.84;83.07
4326;BME280;58429;49.826;10.880;2022-10-28T03:57:00;99436;;;12.85;83.39
4326;BME280;58429;49.826;10.880;2022-10-28T03:58:00;99431;;;12.87;82.98
4326;BME280;58429;49.826;10.880;2022-10-28T03:59:00;99439;;;12.79;82.86
4326;BME280;58429;49.826;10.880;2022-10-28T04:00:00;99433;;;12.82;82.8
4326;BME280;58429;49.826;10.880;2022-10-28T04:01:00;99443;;;12.74;82.84
4326;BME280;58429;49.826;10.880;2022-10-28T04:02:00;99447;;;12.68;82.75
4326;BME280;58429;49.826;10.880;2022-10-28T04:03:00;99442;;;12.65;82.66
4326;BME280;58429;49.826;10.880;2022-10-28T04:04:00;99439;;;12.57;82.59
4326;BME280;58429;49.826;10.880;2022-10-28T04:05:00;99437;;;12.59;82.59
4326;BME280;58429;49.826;10.880;2022-10-28T04:06:00;99440;;;12.62;82.55
4326;BME280;58429;49.826;10.880;2022-10-28T04:07:00;99441;;;12.6;82.55
4326;BME280;58429;49.826;10.880;2022-10-28T04:08:00;99445;;;12.53;82.56
4326;BME280;58429;49.826;10.880;2022-10-28T04:09:00;99443;;;12.51;82.57
4326;BME280;58429;49.826;10.880;2022-10-28T04:10:00;99443;;;12.54;82.49
4326;BME280;58429;49.826;10.880;2022-10-28T04:11:00;99446;;;12.51;82.53
4326;BME280;58429;49.826;10.880;2022-10-28T04:12:00;99452;;;12.5;82.52
4326;BME280;58429;49.826;10.880;2022-10-28T04:13:00;99450;;;12.47;82.55
4326;BME280;58429;49.826;10.880;2022-10-28T04:14:00;99446;;;12.47;82.67
4326;BME280;58429;49.826;10.880;2022-10-28T04:15:00;99444;;;12.46;82.56
4326;BME280;58429;49.826;10.880;2022-10-28T04:16:00;99438;;;12.46;82.71
4326;BME280;58429;49.826;10.880;2022-10-28T04:17:00;99437;;;12.48;82.91
4326;BME280;58429;49.826;10.880;2022-10-28T04:18:00;99433;;;12.53;82.89
4326;BME280;58429;49.826;10.880;2022-10-28T04:19:00;99442;;;12.52;83.01
4326;BME280;58429;49.826;10.880;2022-10-28T04:20:00;99443;;;12.53;83.08
4326;BME280;58429;49.826;10.880;2022-10-28T04:21:00;99444;;;12.55;82.99
4326;BME280;58429;49.826;10.880;2022-10-28T04:22:00;99440;;;12.58;82.97
4326;BME280;58429;49.826;10.880;2022-10-28T04:23:00;99436;;;12.58;83.07
4326;BME280;58429;49.826;10.880;2022-10-28T04:24:00;99439;;;12.56;83.18
4326;BME280;58429;49.826;10.880;2022-10-28T04:25:00;99442;;;12.57;83.3
4326;BME280;58429;49.826;10.880;2022-10-28T04:26:00;99442;;;12.59;83.19
4326;BME280;58429;49.826;10.880;2022-10-28T04:27:00;99445;;;12.52;82.97
4326;BME280;58429;49.826;10.880;2022-10-28T04:28:00;99445;;;12.5;82.96
4326;BME280;58429;49.826;10.880;2022-10-28T04:29:00;99447;;;12.47;82.97
4326;BME280;58429;49.826;10.880;2022-10-28T04:30:00;99439;;;12.48;82.97
4326;BME280;58429;49.826;10.880;2022-10-28T04:31:00;99442;;;12.45;82.94
4326;BME280;58429;49.826;10.880;2022-10-28T04:32:00;99447;;;12.43;83
4326;BME280;58429;49.826;10.880;2022-10-28T04:33:00;99442;;;12.45;82.98
4326;BME280;58429;49.826;10.880;2022-10-28T04:34:00;99443;;;12.47;83.12
4326;BME280;58429;49.826;10.880;2022-10-28T04:35:00;99444;;;12.48;82.96
4326;BME280;58429;49.826;10.880;2022-10-28T04:36:00;99444;;;12.43;82.8
4326;BME280;58429;49.826;10.880;2022-10-28T04:37:00;99437;;;12.43;82.84
4326;BME280;58429;49.826;10.880;2022-10-28T04:38:01;99440;;;12.4;82.74
4326;BME280;58429;49.826;10.880;2022-10-28T04:39:00;99438;;;12.4;82.55
4326;BME280;58429;49.826;10.880;2022-10-28T04:40:00;99441;;;12.36;82.49
4326;BME280;58429;49.826;10.880;2022-10-28T04:41:00;99436;;;12.35;82.53
4326;BME280;58429;49.826;10.880;2022-10-28T04:42:00;99436;;;12.35;82.5
4326;BME280;58429;49.826;10.880;2022-10-28T04:43:00;99439;;;12.35;82.57
4326;BME280;58429;49.826;10.880;2022-10-28T04:44:00;99447;;;12.33;82.51
4326;BME280;58429;49.826;10.880;2022-10-28T04:45:00;99443;;;12.32;82.52
4326;BME280;58429;49.826;10.880;2022-10-28T04:46:00;99444;;;12.32;82.54
4326;BME280;58429;49.826;10.880;2022-10-28T04:47:00;99448;;;12.31;82.54
4326;BME280;58429;49.826;10.880;2022-10-28T04:48:00;99448;;;12.31;82.55
4326;BME280;58429;49.826;10.880;2022-10-28T04:49:00;99450;;;12.29;82.65
4326;BME280;58429;49.826;10.880;2022-10-28T04:50:01;99454;;;12.31;82.93
4326;BME280;58429;49.826;10.880;2022-10-28T04:51:00;99450;;;12.31;83.14
4326;BME280;58429;49.826;10.880;2022-10-28T04:52:00;99456;;;12.31;83.44
4326;BME280;58429;49.826;10.880;2022-10-28T04:53:00;99454;;;12.34;83.77
4326;BME280;58429;49.826;10.880;2022-10-28T04:54:01;99458;;;12.37;84.2
4326;BME280;58429;49.826;10.880;2022-10-28T04:55:00;99463;;;12.43;84.28
4326;BME280;58429;49.826;10.880;2022-10-28T04:56:00;99465;;;12.45;84.46
4326;BME280;58429;49.826;10.880;2022-10-28T04:57:00;99473;;;12.49;84.76
4326;BME280;58429;49.826;10.880;2022-10-28T04:58:01;99471;;;12.58;84.94
4326;BME280;58429;49.826;10.880;2022-10-28T04:59:00;99472;;;12.61;85.13
4326;BME280;58429;49.826;10.880;2022-10-28T05:00:00;99473;;;12.67;84.92
4326;BME280;58429;49.826;10.880;2022-10-28T05:01:03;99480;;;12.76;85.09
4326;BME280;58429;49.826;10.880;2022-10-28T05:02:00;99476;;;12.76;84.86
4326;BME280;58429;49.826;10.880;2022-10-28T05:03:00;99478;;;12.74;84.98
4326;BME280;58429;49.826;10.880;2022-10-28T05:04:00;99477;;;12.79;85.22
4326;BME280;58429;49.826;10.880;2022-10-28T05:05:00;99475;;;12.82;85.27
4326;BME280;58429;49.826;10.880;2022-10-28T05:06:01;99470;;;12.82;85.27
4326;BME280;58429;49.826;10.880;2022-10-28T05:07:00;99469;;;12.85;85.22
4326;BME280;58429;49.826;10.880;2022-10-28T05:08:00;99475;;;12.86;85.11
4326;BME280;58429;49.826;10.880;2022-10-28T05:09:00;99475;;;12.84;85.01
4326;BME280;58429;49.826;10.880;2022-10-28T05:10:01;99471;;;12.87;85.06
4326;BME280;58429;49.826;10.880;2022-10-28T05:11:00;99478;;;12.88;84.94
4326;BME280;58429;49.826;10.880;2022-10-28T05:12:00;99478;;;12.88;84.86
4326;BME280;58429;49.826;10.880;2022-10-28T05:13:00;99478;;;12.87;84.8
4326;BME280;58429;49.826;10.880;2022-10-28T05:14:00;99473;;;12.84;84.74
4326;BME280;58429;49.826;10.880;2022-10-28T05:15:00;99466;;;12.88;84.66
4326;BME280;58429;49.826;10.880;2022-10-28T05:16:00;99472;;;12.87;84.67
4326;BME280;58429;49.826;10.880;2022-10-28T05:17:00;99467;;;12.86;84.5
4326;BME280;58429;49.826;10.880;2022-10-28T05:18:01;99472;;;12.84;84.2
4326;BME280;58429;49.826;10.880;2022-10-28T05:19:00;99473;;;12.84;84.02
4326;BME280;58429;49.826;10.880;2022-10-28T05:20:00;99470;;;12.83;83.85
4326;BME280;58429;49.826;10.880;2022-10-28T05:21:00;99469;;;12.81;83.72
4326;BME280;58429;49.826;10.880;2022-10-28T05:22:00;99469;;;12.82;83.69
4326;BME280;58429;49.826;10.880;2022-10-28T05:23:00;99473;;;12.78;83.58
4326;BME280;58429;49.826;10.880;2022-10-28T05:24:00;99489;;;12.75;83.47
4326;BME280;58429;49.826;10.880;2022-10-28T05:25:00;99491;;;12.67;83.36
4326;BME280;58429;49.826;10.880;2022-10-28T05:26:00;99500;;;12.62;83.53
4326;BME280;58429;49.826;10.880;2022-10-28T05:27:00;99497;;;12.61;83.86
4326;BME280;58429;49.826;10.880;2022-10-28T05:28:00;99500;;;12.61;83.91
4326;BME280;58429;49.826;10.880;2022-10-28T05:29:00;99489;;;12.57;83.91
4326;BME280;58429;49.826;10.880;2022-10-28T05:30:00;99491;;;12.58;83.8
4326;BME280;58429;49.826;10.880;2022-10-28T05:31:00;99496;;;12.59;83.65
4326;BME280;58429;49.826;10.880;2022-10-28T05:32:00;99490;;;12.53;83.43
4326;BME280;58429;49.826;10.880;2022-10-28T05:33:01;99498;;;12.47;83.34
4326;BME280;58429;49.826;10.880;2022-10-28T05:34:00;99485;;;12.44;83.27